createdAt,value
2017-04-28T00:00:11.198Z,5.10
2017-04-28T00:02:37.880Z,5.57
2017-04-28T00:05:04.538Z,5.38
2017-04-28T00:07:31.231Z,5.50
2017-04-28T00:09:57.899Z,5.50
2017-04-28T00:12:24.554Z,5.78
2017-04-28T00:14:51.235Z,5.10
2017-04-28T00:17:17.897Z,5.90
2017-04-28T00:19:44.587Z,5.28
2017-04-28T00:22:11.247Z,6.13
2017-04-28T00:24:37.907Z,6.22
2017-04-28T00:27:04.590Z,5.47
2017-04-28T00:29:31.247Z,5.47
2017-04-28T00:31:57.930Z,5.60
2017-04-28T00:34:24.586Z,5.00
2017-04-28T00:36:51.283Z,5.70
2017-04-28T00:39:17.963Z,5.27
2017-04-28T00:41:44.622Z,6.18
2017-04-28T00:44:11.307Z,5.47
2017-04-28T00:46:37.962Z,5.65
2017-04-28T00:49:04.639Z,5.75
2017-04-28T00:51:31.295Z,6.60
2017-04-28T00:53:57.975Z,5.40
2017-04-28T00:56:24.630Z,5.85
2017-04-28T00:58:51.289Z,5.45
2017-04-28T01:01:17.975Z,5.25
2017-04-28T01:03:44.661Z,5.57
2017-04-28T01:06:11.330Z,5.48
2017-04-28T01:08:38.408Z,5.37
2017-04-28T01:11:05.110Z,6.27
2017-04-28T01:13:31.762Z,5.48
2017-04-28T01:15:58.419Z,5.82
2017-04-28T01:18:25.107Z,5.65
2017-04-28T01:20:51.766Z,5.63
2017-04-28T01:23:18.442Z,5.98
2017-04-28T01:25:45.098Z,5.00
2017-04-28T01:28:11.778Z,6.58
2017-04-28T01:30:38.438Z,5.70
2017-04-28T01:33:05.096Z,5.27
2017-04-28T01:35:31.775Z,5.87
2017-04-28T01:37:58.431Z,5.12
2017-04-28T01:40:25.112Z,5.92
2017-04-28T01:42:51.766Z,5.90
2017-04-28T01:45:19.530Z,4.75
2017-04-28T01:47:46.210Z,5.92
2017-04-28T01:50:12.866Z,5.62
2017-04-28T01:52:39.547Z,5.58
2017-04-28T01:55:06.207Z,5.80
2017-04-28T01:57:33.879Z,5.17
2017-04-28T02:00:00.545Z,5.72
2017-04-28T02:02:27.198Z,5.27
2017-04-28T02:04:53.875Z,4.58
2017-04-28T02:07:20.530Z,5.60
2017-04-28T02:09:47.222Z,4.92
2017-04-28T02:12:13.882Z,5.52
2017-04-28T02:14:40.542Z,5.28
2017-04-28T02:17:07.226Z,5.13
2017-04-28T02:19:33.887Z,5.28
2017-04-28T02:22:00.586Z,5.25
2017-04-28T02:24:27.243Z,4.90
2017-04-28T02:26:53.898Z,5.18
2017-04-28T02:29:20.580Z,5.53
2017-04-28T02:31:47.239Z,4.98
2017-04-28T02:34:13.935Z,4.58
2017-04-28T02:36:40.586Z,5.62
2017-04-28T02:39:07.251Z,4.92
2017-04-28T02:41:33.937Z,5.00
2017-04-28T02:44:00.594Z,5.05
2017-04-28T02:46:27.298Z,5.00
2017-04-28T02:48:53.956Z,5.65
2017-04-28T02:51:20.614Z,5.20
2017-04-28T02:53:47.300Z,5.48
2017-04-28T02:56:13.958Z,5.52
2017-04-28T02:58:40.664Z,5.87
2017-04-28T03:01:07.322Z,6.20
2017-04-28T03:03:33.974Z,5.78
2017-04-28T03:06:00.663Z,4.50
2017-04-28T03:08:27.321Z,5.82
2017-04-28T03:10:54.006Z,5.55
2017-04-28T03:13:20.911Z,7.10
2017-04-28T03:15:47.576Z,6.65
2017-04-28T03:18:14.254Z,5.07
2017-04-28T03:20:40.909Z,4.82
2017-04-28T03:23:07.601Z,5.97
2017-04-28T03:25:34.264Z,5.48
2017-04-28T03:28:00.919Z,5.73
2017-04-28T03:30:27.594Z,5.55
2017-04-28T03:32:54.255Z,5.72
2017-04-28T03:35:20.954Z,6.20
2017-04-28T03:37:47.613Z,6.30
2017-04-28T03:40:14.270Z,5.95
2017-04-28T03:42:40.951Z,5.67
2017-04-28T03:45:07.614Z,5.78
2017-04-28T03:47:34.306Z,6.43
2017-04-28T03:50:00.966Z,7.27
2017-04-28T03:52:27.626Z,5.97
2017-04-28T03:54:54.311Z,5.53
2017-04-28T03:57:20.964Z,6.25
2017-04-28T03:59:47.645Z,5.87
2017-04-28T04:02:14.367Z,6.07
2017-04-28T04:04:41.027Z,5.90
2017-04-28T04:07:07.722Z,6.28
2017-04-28T04:09:34.383Z,6.17
2017-04-28T04:12:01.085Z,6.17
2017-04-28T04:14:27.771Z,6.50
2017-04-28T04:16:54.430Z,6.18
2017-04-28T04:19:21.110Z,6.05
2017-04-28T04:21:47.770Z,5.73
2017-04-28T04:24:14.462Z,5.88
2017-04-28T04:26:41.115Z,6.18
2017-04-28T04:29:07.770Z,6.30
2017-04-28T04:31:34.459Z,6.12
2017-04-28T04:34:01.114Z,6.32
2017-04-28T04:36:27.811Z,6.53
2017-04-28T04:38:54.484Z,6.35
2017-04-28T04:41:21.138Z,6.63
2017-04-28T04:43:47.817Z,6.60
2017-04-28T04:46:14.481Z,6.18
2017-04-28T04:48:41.189Z,6.37
2017-04-28T04:51:07.850Z,6.20
2017-04-28T04:53:34.506Z,6.18
2017-04-28T04:56:01.182Z,5.73
2017-04-28T04:58:27.839Z,6.15
2017-04-28T05:00:54.539Z,6.82
2017-04-28T05:03:21.207Z,6.65
2017-04-28T05:05:47.870Z,6.47
2017-04-28T05:08:14.551Z,7.08
2017-04-28T05:10:41.214Z,6.68
2017-04-28T05:13:07.914Z,7.22
2017-04-28T05:15:34.570Z,6.75
2017-04-28T05:18:01.230Z,7.05
2017-04-28T05:20:27.916Z,6.75
2017-04-28T05:22:54.574Z,8.82
2017-04-28T05:25:21.271Z,7.18
2017-04-28T05:27:47.938Z,7.27
2017-04-28T05:30:14.602Z,7.10
2017-04-28T05:32:41.283Z,7.67
2017-04-28T05:35:07.946Z,8.20
2017-04-28T05:37:34.643Z,7.05
2017-04-28T05:40:01.311Z,6.82
2017-04-28T05:42:27.969Z,7.60
2017-04-28T05:44:54.650Z,7.32
2017-04-28T05:47:21.308Z,8.87
2017-04-28T05:49:47.998Z,8.35
2017-04-28T05:52:14.663Z,8.27
2017-04-28T05:54:41.379Z,7.97
2017-04-28T05:57:08.079Z,8.10
2017-04-28T05:59:34.735Z,8.30
2017-04-28T06:02:01.426Z,9.33
2017-04-28T06:04:28.090Z,9.40
2017-04-28T06:06:54.750Z,8.22
2017-04-28T06:09:21.435Z,9.05
2017-04-28T06:11:48.087Z,8.48
2017-04-28T06:14:14.795Z,9.52
2017-04-28T06:16:41.462Z,10.18
2017-04-28T06:19:08.118Z,9.18
2017-04-28T06:21:34.815Z,9.72
2017-04-28T06:24:01.475Z,9.80
2017-04-28T06:26:28.175Z,10.18
2017-04-28T06:28:54.844Z,9.26
2017-04-28T06:31:21.514Z,10.50
2017-04-28T06:33:48.226Z,10.44
2017-04-28T06:36:14.899Z,10.24
2017-04-28T06:38:41.598Z,10.14
2017-04-28T06:41:08.267Z,10.62
2017-04-28T06:43:34.930Z,10.62
2017-04-28T06:46:01.614Z,10.54
2017-04-28T06:48:28.280Z,11.80
2017-04-28T06:50:54.986Z,10.02
2017-04-28T06:53:21.647Z,10.30
2017-04-28T06:55:48.310Z,10.98
2017-04-28T06:58:14.994Z,11.38
2017-04-28T07:00:41.668Z,11.08
2017-04-28T07:03:08.370Z,11.70
2017-04-28T07:05:35.044Z,10.92
2017-04-28T07:08:01.709Z,11.18
2017-04-28T07:10:28.398Z,11.30
2017-04-28T07:12:55.068Z,11.56
2017-04-28T07:15:21.767Z,11.26
2017-04-28T07:17:48.433Z,11.40
2017-04-28T07:20:15.102Z,12.32
2017-04-28T07:22:41.787Z,11.88
2017-04-28T07:25:08.455Z,11.70
2017-04-28T07:27:35.171Z,11.74
2017-04-28T07:30:01.836Z,10.22
2017-04-28T07:32:28.498Z,11.58
2017-04-28T07:34:55.187Z,12.02
2017-04-28T07:37:21.851Z,11.16
2017-04-28T07:39:48.552Z,11.46
2017-04-28T07:42:15.215Z,11.18
2017-04-28T07:44:41.882Z,12.08
2017-04-28T07:47:08.567Z,11.02
2017-04-28T07:49:35.239Z,11.22
2017-04-28T07:52:01.935Z,14.66
2017-04-28T07:54:28.599Z,11.08
2017-04-28T07:56:55.262Z,11.30
2017-04-28T07:59:21.951Z,12.38
2017-04-28T08:01:48.625Z,12.74
2017-04-28T08:04:15.321Z,12.52
2017-04-28T08:06:41.982Z,13.24
2017-04-28T08:09:08.646Z,13.16
2017-04-28T08:11:35.335Z,13.72
2017-04-28T08:14:02.001Z,14.36
2017-04-28T08:16:28.707Z,13.16
2017-04-28T08:18:55.370Z,14.42
2017-04-28T08:21:22.037Z,13.16
2017-04-28T08:23:48.722Z,15.46
2017-04-28T08:26:15.382Z,14.34
2017-04-28T08:28:42.074Z,15.06
2017-04-28T08:31:08.739Z,14.38
2017-04-28T08:33:35.402Z,15.90
2017-04-28T08:36:02.083Z,15.18
2017-04-28T08:38:28.790Z,15.04
2017-04-28T08:40:55.507Z,14.46
2017-04-28T08:43:22.171Z,15.88
2017-04-28T08:45:48.834Z,14.82
2017-04-28T08:48:15.523Z,14.96
2017-04-28T08:50:42.187Z,15.18
2017-04-28T08:53:08.891Z,15.64
2017-04-28T08:55:35.559Z,14.96
2017-04-28T08:58:02.220Z,13.50
2017-04-28T09:00:28.912Z,14.08
2017-04-28T09:02:55.583Z,12.88
2017-04-28T09:05:22.299Z,14.30
2017-04-28T09:07:48.962Z,14.57
2017-04-28T09:10:15.629Z,12.98
2017-04-28T09:12:42.318Z,12.63
2017-04-28T09:15:08.986Z,10.15
2017-04-28T09:17:35.674Z,9.83
2017-04-28T09:20:02.330Z,8.95
2017-04-28T09:22:28.986Z,9.67
2017-04-28T09:24:55.682Z,10.57
2017-04-28T09:27:22.342Z,9.67
2017-04-28T09:29:49.050Z,6.38
2017-04-28T09:32:15.784Z,8.78
2017-04-28T09:34:42.447Z,10.32
2017-04-28T09:37:09.135Z,11.80
2017-04-28T09:39:35.802Z,11.92
2017-04-28T09:42:02.496Z,12.70
2017-04-28T09:44:29.163Z,13.46
2017-04-28T09:46:55.830Z,13.44
2017-04-28T09:49:22.519Z,12.20
2017-04-28T09:51:49.177Z,11.70
2017-04-28T09:54:15.883Z,12.00
2017-04-28T09:56:42.554Z,11.92
2017-04-28T09:59:09.231Z,12.28
2017-04-28T10:01:35.922Z,12.50
2017-04-28T10:04:02.579Z,11.70
2017-04-28T10:06:29.279Z,11.74
2017-04-28T10:08:55.945Z,12.04
2017-04-28T10:11:22.612Z,11.90
2017-04-28T10:13:49.299Z,12.42
2017-04-28T10:16:15.966Z,10.70
2017-04-28T10:18:42.662Z,9.30
2017-04-28T10:21:09.323Z,10.26
2017-04-28T10:23:35.990Z,9.54
2017-04-28T10:26:02.670Z,8.24
2017-04-28T10:28:29.330Z,8.58
2017-04-28T10:30:56.010Z,8.50
2017-04-28T10:33:22.670Z,8.40
2017-04-28T10:35:49.366Z,9.00
2017-04-28T10:38:16.035Z,8.92
2017-04-28T10:40:42.691Z,8.62
2017-04-28T10:43:09.374Z,8.34
2017-04-28T10:45:36.026Z,8.20
2017-04-28T10:48:02.686Z,8.54
2017-04-28T10:50:29.371Z,8.52
2017-04-28T10:52:56.022Z,8.70
2017-04-28T10:55:22.731Z,9.55
2017-04-28T10:57:49.390Z,9.63
2017-04-28T11:00:16.055Z,10.00
2017-04-28T11:02:42.746Z,9.23
2017-04-28T11:05:09.407Z,9.68
2017-04-28T11:07:36.102Z,8.83
2017-04-28T11:10:02.759Z,9.68
2017-04-28T11:12:29.418Z,9.03
2017-04-28T11:14:56.106Z,9.42
2017-04-28T11:17:22.774Z,10.07
2017-04-28T11:19:49.478Z,9.90
2017-04-28T11:22:16.142Z,11.35
2017-04-28T11:24:42.808Z,13.18
2017-04-28T11:27:09.496Z,13.62
2017-04-28T11:29:36.162Z,13.47
2017-04-28T11:32:02.870Z,13.22
2017-04-28T11:34:29.535Z,12.63
2017-04-28T11:36:56.206Z,13.77
2017-04-28T11:39:22.890Z,13.38
2017-04-28T11:41:49.564Z,13.03
2017-04-28T11:44:16.266Z,12.35
2017-04-28T11:46:42.933Z,12.43
2017-04-28T11:49:09.594Z,13.73
2017-04-28T11:51:36.283Z,14.08
2017-04-28T11:54:02.955Z,14.67
2017-04-28T11:56:29.654Z,14.15
2017-04-28T11:58:56.319Z,14.35
2017-04-28T12:01:22.984Z,15.00
2017-04-28T12:03:49.698Z,15.15
2017-04-28T12:06:16.363Z,14.08
2017-04-28T12:08:43.058Z,14.85
2017-04-28T12:11:09.749Z,16.15
2017-04-28T12:13:36.417Z,14.65
2017-04-28T12:16:03.107Z,15.13
2017-04-28T12:18:29.777Z,15.93
2017-04-28T12:20:56.476Z,15.28
2017-04-28T12:23:23.147Z,15.78
2017-04-28T12:25:49.815Z,15.12
2017-04-28T12:28:16.512Z,15.92
2017-04-28T12:30:43.171Z,15.85
2017-04-28T12:33:09.869Z,15.75
2017-04-28T12:35:36.535Z,15.43
2017-04-28T12:38:03.203Z,17.97
2017-04-28T12:40:29.885Z,17.95
2017-04-28T12:42:56.542Z,15.92
2017-04-28T12:45:23.230Z,16.83
2017-04-28T12:47:49.898Z,16.42
2017-04-28T12:50:16.962Z,17.63
2017-04-28T12:52:43.651Z,17.35
2017-04-28T12:55:10.317Z,18.75
2017-04-28T12:57:37.022Z,18.95
2017-04-28T13:00:03.689Z,17.92
2017-04-28T13:02:30.358Z,18.35
2017-04-28T13:04:57.043Z,15.15
2017-04-28T13:07:23.709Z,18.53
2017-04-28T13:09:50.414Z,20.08
2017-04-28T13:12:17.080Z,20.53
2017-04-28T13:14:43.743Z,20.28
2017-04-28T13:17:10.435Z,21.13
2017-04-28T13:19:37.111Z,19.88
2017-04-28T13:22:03.818Z,21.60
2017-04-28T13:24:30.499Z,22.48
2017-04-28T13:26:57.162Z,23.07
2017-04-28T13:29:23.850Z,17.00
2017-04-28T13:31:50.518Z,18.42
2017-04-28T13:34:17.214Z,18.45
2017-04-28T13:36:43.882Z,19.70
2017-04-28T13:39:10.551Z,21.15
2017-04-28T13:41:37.238Z,20.02
2017-04-28T13:44:03.914Z,20.72
2017-04-28T13:46:30.638Z,23.27
2017-04-28T13:48:57.309Z,23.43
2017-04-28T13:51:23.978Z,22.87
2017-04-28T13:53:50.670Z,23.87
2017-04-28T13:56:17.330Z,21.78
2017-04-28T13:58:44.037Z,20.40
2017-04-28T14:01:10.702Z,22.92
2017-04-28T14:03:37.371Z,21.68
2017-04-28T14:06:04.290Z,23.03
2017-04-28T14:08:30.955Z,20.48
2017-04-28T14:10:57.663Z,22.80
2017-04-28T14:13:24.331Z,23.00
2017-04-28T14:15:50.994Z,22.68
2017-04-28T14:18:17.679Z,22.12
2017-04-28T14:20:44.348Z,22.17
2017-04-28T14:23:11.059Z,23.03
2017-04-28T14:25:37.730Z,19.50
2017-04-28T14:28:04.399Z,21.32
2017-04-28T14:30:31.087Z,23.67
2017-04-28T14:32:57.750Z,20.47
2017-04-28T14:35:24.467Z,21.85
2017-04-28T14:37:51.134Z,20.85
2017-04-28T14:40:17.799Z,21.27
2017-04-28T14:42:44.487Z,21.32
2017-04-28T14:45:11.161Z,22.57
2017-04-28T14:47:37.864Z,21.18
2017-04-28T14:50:04.533Z,21.38
2017-04-28T14:52:31.201Z,21.32
2017-04-28T14:54:57.899Z,21.43
2017-04-28T14:57:24.566Z,20.23
2017-04-28T14:59:51.382Z,22.27
2017-04-28T15:02:18.046Z,22.48
2017-04-28T15:04:44.719Z,22.17
2017-04-28T15:07:11.403Z,21.08
2017-04-28T15:09:38.063Z,22.63
2017-04-28T15:12:04.762Z,18.68
2017-04-28T15:14:31.422Z,21.83
2017-04-28T15:16:58.091Z,20.93
2017-04-28T15:19:24.784Z,21.27
2017-04-28T15:21:51.450Z,23.03
2017-04-28T15:24:18.151Z,21.67
2017-04-28T15:26:44.811Z,21.13
2017-04-28T15:29:11.478Z,23.50
2017-04-28T15:31:38.176Z,22.33
2017-04-28T15:34:04.847Z,20.35
2017-04-28T15:36:31.562Z,22.22
2017-04-28T15:38:58.227Z,21.40
2017-04-28T15:41:24.892Z,22.72
2017-04-28T15:43:51.584Z,24.05
2017-04-28T15:46:18.572Z,22.78
2017-04-28T15:48:45.279Z,23.10
2017-04-28T15:51:11.944Z,22.85
2017-04-28T15:53:38.606Z,20.88
2017-04-28T15:56:05.295Z,21.35
2017-04-28T15:58:31.970Z,20.67
2017-04-28T16:00:58.671Z,20.93
2017-04-28T16:03:25.347Z,22.08
2017-04-28T16:05:52.016Z,21.72
2017-04-28T16:08:18.706Z,20.50
2017-04-28T16:10:45.371Z,23.55
2017-04-28T16:13:12.063Z,22.35
2017-04-28T16:15:38.727Z,21.60
2017-04-28T16:18:05.402Z,22.97
2017-04-28T16:20:32.094Z,22.67
2017-04-28T16:22:58.754Z,24.77
2017-04-28T16:25:25.454Z,23.58
2017-04-28T16:27:52.487Z,24.70
2017-04-28T16:30:19.151Z,26.05
2017-04-28T16:32:45.838Z,23.80
2017-04-28T16:35:12.747Z,23.78
2017-04-28T16:37:39.454Z,21.08
2017-04-28T16:40:06.124Z,21.13
2017-04-28T16:42:32.794Z,19.28
2017-04-28T16:44:59.474Z,19.30
2017-04-28T16:47:26.144Z,20.47
2017-04-28T16:49:52.850Z,21.55
2017-04-28T16:52:19.568Z,20.55
2017-04-28T16:54:46.235Z,17.82
2017-04-28T16:57:12.908Z,20.92
2017-04-28T16:59:39.598Z,18.73
2017-04-28T17:02:06.284Z,19.72
2017-04-28T17:04:32.966Z,20.60
2017-04-28T17:06:59.695Z,20.38
2017-04-28T17:09:26.370Z,20.00
2017-04-28T17:11:53.035Z,23.70
2017-04-28T17:14:19.723Z,23.70
2017-04-28T17:16:46.398Z,21.60
2017-04-28T17:19:13.073Z,22.85
2017-04-28T17:21:39.762Z,24.67
2017-04-28T17:24:06.432Z,21.33
2017-04-28T17:26:33.127Z,24.22
2017-04-28T17:28:59.818Z,20.95
2017-04-28T17:31:26.478Z,19.13
2017-04-28T17:33:53.219Z,21.52
2017-04-28T17:36:19.915Z,19.27
2017-04-28T17:38:46.585Z,20.87
2017-04-28T17:41:13.249Z,24.53
2017-04-28T17:43:39.935Z,21.92
2017-04-28T17:46:06.601Z,18.20
2017-04-28T17:48:33.302Z,17.52
2017-04-28T17:50:59.998Z,19.47
2017-04-28T17:53:26.674Z,18.33
2017-04-28T17:55:53.363Z,19.65
2017-04-28T17:58:20.045Z,22.10
2017-04-28T18:00:46.722Z,20.32
2017-04-28T18:03:13.418Z,21.72
2017-04-28T18:05:40.088Z,25.70
2017-04-28T18:08:06.758Z,28.98
2017-04-28T18:10:33.430Z,28.18
2017-04-28T18:13:00.102Z,24.28
2017-04-28T18:15:26.775Z,27.08
2017-04-28T18:17:53.442Z,28.78
2017-04-28T18:20:20.714Z,31.10
2017-04-28T18:22:47.381Z,29.38
2017-04-28T18:25:14.052Z,27.57
2017-04-28T18:27:40.722Z,29.75
2017-04-28T18:30:07.387Z,31.33
2017-04-28T18:32:34.046Z,29.88
2017-04-28T18:35:00.749Z,31.00
2017-04-28T18:37:27.426Z,27.50
2017-04-28T18:39:54.102Z,32.43
2017-04-28T18:42:20.770Z,31.73
2017-04-28T18:44:47.445Z,30.42
2017-04-28T18:47:14.120Z,28.32
2017-04-28T18:49:40.807Z,30.55
2017-04-28T18:52:07.486Z,29.00
2017-04-28T18:54:34.182Z,29.00
2017-04-28T18:57:00.871Z,28.75
2017-04-28T18:59:27.723Z,30.98
2017-04-28T19:01:54.448Z,28.80
2017-04-28T19:04:21.120Z,28.27
2017-04-28T19:06:47.795Z,29.68
2017-04-28T19:09:14.475Z,29.90
2017-04-28T19:11:41.232Z,25.77
2017-04-28T19:14:07.951Z,21.93
2017-04-28T19:16:34.654Z,25.00
2017-04-28T19:19:01.366Z,21.97
2017-04-28T19:21:28.134Z,23.62
2017-04-28T19:23:54.807Z,24.43
2017-04-28T19:26:21.495Z,22.80
2017-04-28T19:28:48.170Z,25.58
2017-04-28T19:31:14.841Z,24.57
2017-04-28T19:33:41.828Z,23.55
2017-04-28T19:36:08.544Z,21.55
2017-04-28T19:38:35.294Z,21.88
2017-04-28T19:41:01.970Z,23.38
2017-04-28T19:43:28.640Z,21.72
2017-04-28T19:45:55.322Z,24.53
2017-04-28T19:48:21.994Z,21.97
2017-04-28T19:50:48.711Z,24.88
2017-04-28T19:53:15.433Z,27.48
2017-04-28T19:55:42.126Z,25.08
2017-04-28T19:58:08.831Z,28.05
2017-04-28T20:00:35.502Z,28.68
2017-04-28T20:03:02.294Z,30.15
2017-04-28T20:05:29.000Z,29.22
2017-04-28T20:07:55.734Z,27.88
2017-04-28T20:10:22.404Z,31.15
2017-04-28T20:12:49.084Z,27.60
2017-04-28T20:15:15.789Z,28.55
2017-04-28T20:17:42.466Z,27.03
2017-04-28T20:20:09.138Z,29.63
2017-04-28T20:22:35.804Z,25.08
2017-04-28T20:25:02.507Z,26.82
2017-04-28T20:27:29.180Z,28.47
2017-04-28T20:29:55.848Z,27.72
2017-04-28T20:32:22.530Z,27.38
2017-04-28T20:34:49.199Z,29.60
2017-04-28T20:37:15.866Z,57.42
2017-04-28T20:39:42.538Z,39.60
2017-04-28T20:42:09.212Z,29.68
2017-04-28T20:44:35.883Z,29.08
2017-04-28T20:47:02.551Z,30.38
2017-04-28T20:49:29.478Z,31.25
2017-04-28T20:51:56.151Z,32.42
2017-04-28T20:54:22.819Z,31.75
2017-04-28T20:56:49.486Z,33.45
2017-04-28T20:59:16.159Z,33.78
2017-04-28T21:01:42.868Z,33.57
2017-04-28T21:04:09.542Z,33.53
2017-04-28T21:06:36.207Z,32.00
2017-04-28T21:09:02.875Z,35.75
2017-04-28T21:11:29.539Z,37.02
2017-04-28T21:13:56.202Z,37.40
2017-04-28T21:16:22.879Z,35.70
2017-04-28T21:18:49.556Z,33.78
2017-04-28T21:21:16.221Z,35.40
2017-04-28T21:23:42.891Z,35.12
2017-04-28T21:26:09.555Z,38.52
2017-04-28T21:28:36.223Z,36.10
2017-04-28T21:31:02.900Z,34.22
2017-04-28T21:33:29.576Z,33.78
2017-04-28T21:35:56.247Z,31.37
2017-04-28T21:38:22.943Z,32.97
2017-04-28T21:40:49.608Z,33.33
2017-04-28T21:43:16.291Z,32.52
2017-04-28T21:45:42.964Z,29.90
2017-04-28T21:48:09.623Z,30.02
2017-04-28T21:50:36.298Z,28.75
2017-04-28T21:53:02.973Z,30.18
2017-04-28T21:55:29.638Z,31.87
2017-04-28T21:57:56.311Z,29.53
2017-04-28T22:00:22.978Z,29.88
2017-04-28T22:02:49.651Z,30.12
2017-04-28T22:05:16.314Z,28.38
2017-04-28T22:07:42.994Z,26.08
2017-04-28T22:10:09.663Z,24.37
2017-04-28T22:12:36.335Z,25.35
2017-04-28T22:15:20.651Z,21.38
2017-04-28T22:17:47.318Z,21.97
2017-04-28T22:20:13.990Z,21.58
2017-04-28T22:22:40.659Z,21.97
2017-04-28T22:25:07.318Z,21.55
2017-04-28T22:27:33.983Z,19.78
2017-04-28T22:30:00.658Z,15.88
2017-04-28T22:32:27.325Z,18.60
2017-04-28T22:34:54.020Z,16.35
2017-04-28T22:37:20.687Z,16.08
2017-04-28T22:39:47.358Z,14.20
2017-04-28T22:42:14.026Z,13.17
2017-04-28T22:44:40.699Z,13.95
2017-04-28T22:47:07.374Z,12.13
2017-04-28T22:49:34.050Z,12.43
2017-04-28T22:52:00.726Z,11.87
2017-04-28T22:54:27.396Z,11.42
2017-04-28T22:56:54.066Z,11.52
2017-04-28T22:59:20.736Z,12.42
2017-04-28T23:01:47.403Z,11.97
2017-04-28T23:04:14.075Z,12.17
2017-04-28T23:06:40.767Z,12.10
2017-04-28T23:09:07.431Z,12.15
2017-04-28T23:11:34.101Z,11.85
2017-04-28T23:14:00.772Z,10.38
2017-04-28T23:16:27.442Z,12.37
2017-04-28T23:18:54.110Z,10.50
2017-04-28T23:21:20.784Z,12.40
2017-04-28T23:23:47.455Z,13.05
2017-04-28T23:26:14.118Z,11.47
2017-04-28T23:28:40.794Z,11.77
2017-04-28T23:31:08.375Z,11.58
2017-04-28T23:33:35.048Z,10.88
2017-04-28T23:36:01.715Z,11.43
2017-04-28T23:38:28.381Z,10.07
2017-04-28T23:40:55.047Z,12.80
2017-04-28T23:43:21.711Z,11.93
2017-04-28T23:45:48.381Z,11.43
2017-04-28T23:48:15.052Z,12.08
2017-04-28T23:50:41.724Z,13.50
2017-04-28T23:53:08.393Z,12.30
2017-04-28T23:55:35.062Z,11.97
2017-04-28T23:58:01.983Z,13.12
